Time;durP1;ratioP1;P1;durP2;ratioP2;P2;SDS_P1;SDS_P2;PMS_P1;PMS_P2;Temp;Humidity;BMP_temperature;BMP_pressure;BME280_temperature;BME280_humidity;BME280_pressure;Samples;Min_cycle;Max_cycle;Signal;HPM_P1;HPM_P2
2021/01/05 00:01:28;;;;;;;27.88;16.42;;;;;;;7.74;74.07;92932.63;5081496;28;20019;-66
2021/01/05 00:03:54;;;;;;;26.45;15.73;;;;;;;7.73;73.98;92931.06;5077135;28;20055;-65
2021/01/05 00:06:19;;;;;;;28.38;15.35;;;;;;;7.64;74.55;92933.75;5088183;28;20527;-66
2021/01/05 00:08:44;;;;;;;20.27;9.88;;;;;;;7.68;73.09;92932.03;5085360;28;20028;-65
2021/01/05 00:11:10;;;;;;;11.07;5.40;;;;;;;7.69;70.45;92927.47;5076273;28;20498;-66
2021/01/05 00:13:35;;;;;;;8.05;4.20;;;;;;;7.66;69.06;92939.50;5087936;28;20054;-66
2021/01/05 00:16:01;;;;;;;7.18;3.10;;;;;;;7.62;68.68;92934.06;5077239;28;20019;-65
2021/01/05 00:18:26;;;;;;;4.78;1.95;;;;;;;7.54;67.45;92939.41;5069258;28;20043;-66
2021/01/05 00:20:52;;;;;;;5.70;2.45;;;;;;;7.49;68.24;92943.00;5068623;28;20056;-65
2021/01/05 00:23:17;;;;;;;4.80;1.65;;;;;;;7.52;68.12;92939.69;5067930;28;20480;-66
2021/01/05 00:25:43;;;;;;;6.03;2.28;;;;;;;7.49;68.45;92936.91;5069499;28;20028;-66
2021/01/05 00:28:10;;;;;;;5.60;2.08;;;;;;;7.47;68.56;92950.50;5080544;28;20032;-66
2021/01/05 00:30:36;;;;;;;4.57;2.10;;;;;;;7.47;68.43;92950.50;5069553;28;20025;-66
2021/01/05 00:33:03;;;;;;;4.13;1.50;;;;;;;7.41;68.47;92944.56;5069069;28;20086;-65
2021/01/05 00:35:32;;;;;;;4.25;1.50;;;;;;;7.39;68.05;92941.44;5069090;28;20024;-66
2021/01/05 00:37:58;;;;;;;5.43;1.02;;;;;;;7.46;67.43;92940.19;5067626;28;20564;-65
2021/01/05 00:40:25;;;;;;;6.38;1.23;;;;;;;7.39;67.67;92959.25;5071745;28;20404;-64
2021/01/05 00:42:51;;;;;;;2.67;0.98;;;;;;;7.23;67.84;92951.75;5069056;28;20059;-65
2021/01/05 00:45:24;;;;;;;3.47;1.08;;;;;;;7.10;68.17;92973.91;5086260;28;20399;-64
2021/01/05 00:47:49;;;;;;;2.40;0.88;;;;;;;7.02;69.05;92972.81;5075574;28;20485;-64
2021/01/05 00:50:15;;;;;;;1.85;0.98;;;;;;;7.00;68.89;92980.31;5078549;28;20108;-65
2021/01/05 00:52:41;;;;;;;2.20;0.98;;;;;;;7.02;68.57;92974.69;5068281;28;20510;-65
2021/01/05 00:55:07;;;;;;;4.35;1.73;;;;;;;7.02;69.36;92983.44;5074073;28;20036;-64
2021/01/05 00:57:33;;;;;;;2.78;1.20;;;;;;;7.03;69.70;92986.84;5077807;28;20069;-65
2021/01/05 00:59:58;;;;;;;3.20;1.38;;;;;;;7.00;70.34;92984.81;5068586;28;20211;-64
2021/01/05 01:02:24;;;;;;;7.03;1.52;;;;;;;7.05;70.09;92991.84;5067040;28;20029;-64
2021/01/05 01:04:49;;;;;;;4.03;1.58;;;;;;;7.09;70.27;92992.78;5067221;28;20433;-66
2021/01/05 01:07:14;;;;;;;4.00;1.55;;;;;;;7.10;70.30;92989.78;5089000;28;20028;-64
2021/01/05 01:09:40;;;;;;;4.60;2.30;;;;;;;7.13;70.20;92999.78;5088548;28;20395;-65
2021/01/05 01:12:19;;;;;;;4.50;1.83;;;;;;;7.14;69.87;92996.03;5088854;28;20043;-64
2021/01/05 01:14:46;;;;;;;4.65;1.80;;;;;;;7.13;70.00;93006.97;5087139;28;20027;-65
2021/01/05 01:17:13;;;;;;;2.95;1.48;;;;;;;7.12;70.26;93000.09;5088531;28;20028;-65
2021/01/05 01:19:38;;;;;;;5.18;1.75;;;;;;;7.14;70.04;92995.25;5088268;28;20035;-65
2021/01/05 01:22:04;;;;;;;3.88;1.90;;;;;;;7.18;70.00;93006.78;5091909;28;20673;-65
2021/01/05 01:24:29;;;;;;;4.57;1.52;;;;;;;7.18;69.89;93017.41;5085022;28;20112;-64
2021/01/05 01:26:55;;;;;;;4.00;2.15;;;;;;;7.16;69.87;93007.09;5070915;28;20491;-65
2021/01/05 01:29:23;;;;;;;2.90;1.60;;;;;;;7.18;69.82;93012.88;5070702;28;20103;-65
2021/01/05 01:31:49;;;;;;;3.38;1.67;;;;;;;7.19;70.00;93016.31;5070943;28;20028;-64
2021/01/05 01:34:16;;;;;;;4.22;2.03;;;;;;;7.20;70.04;93023.94;5072174;28;20513;-65
2021/01/05 01:36:41;;;;;;;2.95;1.52;;;;;;;7.22;69.90;93018.31;5090858;28;20085;-65
2021/01/05 01:39:07;;;;;;;6.82;1.80;;;;;;;7.22;69.65;93035.03;5083700;28;20457;-64
2021/01/05 01:41:33;;;;;;;5.05;1.60;;;;;;;7.18;69.08;93028.75;5091917;28;20394;-65
2021/01/05 01:44:00;;;;;;;2.72;1.60;;;;;;;7.12;69.18;93029.25;5073180;28;20081;-65
2021/01/05 01:46:32;;;;;;;3.80;1.65;;;;;;;7.19;69.98;93042.81;5071712;28;20132;-64
2021/01/05 01:48:57;;;;;;;3.60;1.73;;;;;;;7.22;69.50;93034.22;5091305;28;20032;-65
2021/01/05 01:51:22;;;;;;;5.68;2.03;;;;;;;7.15;69.03;93045.31;5090743;28;20119;-64
2021/01/05 01:53:54;;;;;;;3.08;1.63;;;;;;;7.03;69.33;93047.78;5082027;28;20063;-65
2021/01/05 01:56:32;;;;;;;4.72;2.63;;;;;;;6.94;69.56;93045.13;5091954;28;20073;-65
2021/01/05 01:59:06;;;;;;;5.05;2.25;;;;;;;6.91;69.94;93051.03;5075316;28;20488;-65
2021/01/05 02:01:47;;;;;;;5.82;2.17;;;;;;;6.75;70.29;93042.75;5075070;28;20432;-65
2021/01/05 02:04:25;;;;;;;5.70;1.50;;;;;;;6.74;69.52;93058.97;5091209;28;20035;-65
2021/01/05 02:07:18;;;;;;;3.03;1.25;;;;;;;6.71;70.11;93067.50;5092183;28;20024;-64
2021/01/05 02:10:02;;;;;;;3.85;1.35;;;;;;;6.76;70.87;93064.72;5074010;28;20012;-65
2021/01/05 02:12:28;;;;;;;2.45;1.05;;;;;;;6.75;69.11;93065.81;5088624;28;20114;-65
2021/01/05 02:15:27;;;;;;;1.90;0.80;;;;;;;6.74;69.26;93067.69;5085118;28;20210;-65
2021/01/05 02:17:58;;;;;;;0.43;0.38;;;;;;;6.72;64.89;93067.22;5089515;28;20039;-65
2021/01/05 02:20:29;;;;;;;5.22;0.65;;;;;;;6.76;66.79;93080.63;5071157;28;20032;-65
2021/01/05 02:22:57;;;;;;;1.60;0.60;;;;;;;6.74;67.91;93074.84;5071366;28;20086;-65
2021/01/05 02:25:38;;;;;;;1.92;0.70;;;;;;;6.77;68.52;93076.88;5088848;28;20028;-65
2021/01/05 02:28:07;;;;;;;1.23;0.70;;;;;;;6.74;69.12;93075.63;5079449;28;20050;-66
2021/01/05 02:30:39;;;;;;;2.88;0.70;;;;;;;6.79;69.02;93080.00;5069616;28;20446;-65
2021/01/05 02:33:16;;;;;;;1.70;0.60;;;;;;;6.82;68.20;93074.09;5090259;28;20043;-65
2021/01/05 02:36:13;;;;;;;2.15;0.90;;;;;;;6.93;68.15;93077.22;5091268;28;20649;-65
2021/01/05 02:39:16;;;;;;;3.60;0.98;;;;;;;6.97;68.08;93081.59;5089872;28;20498;-65
2021/01/05 02:42:02;;;;;;;2.28;0.65;;;;;;;6.99;67.55;93076.75;5075086;28;20032;-65
2021/01/05 02:45:00;;;;;;;3.08;1.13;;;;;;;7.03;68.52;93084.88;5083256;28;20024;-66
2021/01/05 02:47:38;;;;;;;4.60;1.52;;;;;;;7.05;68.21;93080.06;5088905;28;20124;-66
2021/01/05 02:50:21;;;;;;;5.18;1.65;;;;;;;7.08;67.66;93074.13;5090900;28;20069;-66
2021/01/05 02:53:05;;;;;;;4.15;1.98;;;;;;;7.11;67.59;93080.69;5105364;28;20067;-65
2021/01/05 02:55:39;;;;;;;4.32;1.17;;;;;;;7.11;66.77;93078.81;5090390;28;20118;-65
2021/01/05 02:58:22;;;;;;;3.42;1.10;;;;;;;7.14;65.88;93083.47;5089221;28;20032;-65
2021/01/05 03:00:59;;;;;;;3.58;1.50;;;;;;;7.20;66.61;93073.50;5089263;28;20410;-65
2021/01/05 03:03:36;;;;;;;2.83;1.65;;;;;;;7.22;66.90;93089.88;5089277;28;20066;-66
2021/01/05 03:06:40;;;;;;;4.82;2.17;;;;;;;7.25;67.36;93083.97;5090576;28;20512;-65
2021/01/05 03:09:23;;;;;;;5.30;2.92;;;;;;;7.26;67.56;93074.16;5070950;28;20042;-66
2021/01/05 03:11:57;;;;;;;8.00;3.85;;;;;;;7.27;67.35;93089.75;5085348;28;20104;-66
2021/01/05 03:14:41;;;;;;;6.60;3.60;;;;;;;7.31;67.38;93090.69;5089799;28;20102;-66
2021/01/05 03:17:56;;;;;;;7.75;3.97;;;;;;;7.33;67.33;93087.75;5070404;28;22591;-65
2021/01/05 03:20:41;;;;;;;9.50;4.35;;;;;;;7.16;66.86;93091.13;5047525;28;20028;-66
2021/01/05 03:23:09;;;;;;;7.65;3.58;;;;;;;7.23;66.31;93094.88;5090140;28;20047;-66
2021/01/05 03:25:39;;;;;;;1.92;0.93;;;;;;;7.06;59.19;93094.06;5087389;28;20347;-65
2021/01/05 03:28:08;;;;;;;1.23;0.75;;;;;;;7.11;59.02;93092.06;5075962;28;20040;-65
2021/01/05 03:30:42;;;;;;;1.73;0.85;;;;;;;7.07;60.15;93095.66;5071155;28;20129;-65
2021/01/05 03:33:08;;;;;;;2.78;1.42;;;;;;;7.08;63.22;93095.31;5075216;28;20032;-65
2021/01/05 03:35:34;;;;;;;3.88;1.30;;;;;;;7.14;64.02;93111.84;5074212;28;20054;-65
2021/01/05 03:38:00;;;;;;;8.57;4.55;;;;;;;7.21;66.88;93104.25;5072565;28;20155;-65
2021/01/05 03:40:25;;;;;;;8.32;3.85;;;;;;;7.19;67.71;93109.06;5068228;28;20578;-65
2021/01/05 03:42:51;;;;;;;12.43;3.90;;;;;;;7.14;66.58;93125.88;5067649;28;20028;-65
2021/01/05 03:45:26;;;;;;;1.63;1.10;;;;;;;6.97;58.35;93116.03;5069070;28;20043;-65
2021/01/05 03:47:52;;;;;;;1.63;1.02;;;;;;;6.99;59.47;93121.81;5089114;28;20032;-64
2021/01/05 03:50:18;;;;;;;1.70;1.05;;;;;;;6.84;58.76;93135.50;5080854;28;20381;-64
2021/01/05 03:52:44;;;;;;;2.63;1.20;;;;;;;6.74;59.38;93128.59;5076431;28;20075;-64
2021/01/05 03:55:11;;;;;;;2.33;1.50;;;;;;;6.66;59.90;93118.75;5069340;28;20028;-65
2021/01/05 03:57:36;;;;;;;2.15;1.25;;;;;;;6.62;59.89;93136.34;5088078;28;20077;-65
2021/01/05 04:00:05;;;;;;;3.05;1.83;;;;;;;6.44;60.63;93124.88;5089895;28;20032;-65
2021/01/05 04:02:30;;;;;;;4.90;2.10;;;;;;;6.44;59.18;93116.94;5089236;28;20107;-65
2021/01/05 04:04:55;;;;;;;3.92;1.83;;;;;;;6.49;58.66;93118.66;5085567;28;20511;-64
2021/01/05 04:07:21;;;;;;;5.13;1.65;;;;;;;6.53;58.80;93115.09;5085355;28;20024;-65
2021/01/05 04:09:46;;;;;;;2.65;1.65;;;;;;;6.50;59.19;93113.06;5067951;28;20450;-64
2021/01/05 04:12:11;;;;;;;3.47;1.80;;;;;;;6.55;59.51;93123.53;5071362;28;20031;-65
2021/01/05 04:14:37;;;;;;;2.42;1.50;;;;;;;6.57;58.54;93113.44;5089617;28;20035;-64
2021/01/05 04:17:02;;;;;;;2.80;1.70;;;;;;;6.65;58.81;93129.66;5087888;28;20111;-64
2021/01/05 04:19:28;;;;;;;4.15;2.20;;;;;;;6.73;58.82;93123.59;5089389;28;20059;-64
2021/01/05 04:21:53;;;;;;;4.47;1.38;;;;;;;6.74;59.59;93130.47;5088122;28;20590;-65
2021/01/05 04:24:19;;;;;;;2.83;1.85;;;;;;;6.81;58.29;93147.47;5089155;28;20023;-65
2021/01/05 04:26:46;;;;;;;4.20;1.98;;;;;;;6.83;57.83;93139.22;5085435;28;20043;-65
2021/01/05 04:29:11;;;;;;;3.55;2.10;;;;;;;6.87;57.58;93147.34;5077719;28;20039;-65
2021/01/05 04:31:40;;;;;;;3.35;1.88;;;;;;;6.92;57.97;93155.94;5087956;28;20024;-65
2021/01/05 04:34:06;;;;;;;7.35;2.05;;;;;;;6.96;58.28;93159.53;5089175;28;20514;-65
2021/01/05 04:36:32;;;;;;;3.63;1.70;;;;;;;6.81;56.87;93157.28;5088538;28;20024;-65
2021/01/05 04:38:57;;;;;;;4.35;2.20;;;;;;;6.86;56.88;93170.41;5084418;28;20483;-65
2021/01/05 04:41:24;;;;;;;2.30;1.35;;;;;;;6.77;55.79;93169.56;5088503;28;20035;-65
2021/01/05 04:43:58;;;;;;;11.13;2.08;;;;;;;6.87;56.42;93179.91;5081783;28;20047;-65
2021/01/05 04:46:38;;;;;;;2.30;1.42;;;;;;;6.96;55.76;93183.38;5076643;28;20059;-65
2021/01/05 04:49:50;;;;;;;3.03;1.83;;;;;;;7.06;59.01;93190.25;5088077;28;20020;-66
2021/01/05 04:52:19;;;;;;;6.75;3.75;;;;;;;7.10;65.59;93198.38;5088663;28;20060;-65
2021/01/05 04:54:51;;;;;;;7.18;3.47;;;;;;;7.03;66.39;93202.25;5090755;28;20478;-66
2021/01/05 04:57:19;;;;;;;6.93;4.00;;;;;;;6.95;67.12;93203.00;5091883;28;20031;-65
2021/01/05 05:00:04;;;;;;;8.88;4.38;;;;;;;6.97;67.50;93214.06;5091431;28;20078;-65
2021/01/05 05:02:29;;;;;;;12.77;4.50;;;;;;;6.97;67.80;93226.53;5081045;28;20028;-65
2021/01/05 05:05:01;;;;;;;7.68;3.83;;;;;;;6.97;67.50;93215.94;5071263;28;20480;-65
2021/01/05 05:07:35;;;;;;;7.72;4.43;;;;;;;6.82;68.49;93217.91;5090782;28;20120;-65
2021/01/05 05:10:12;;;;;;;9.65;5.70;;;;;;;6.76;68.99;93232.38;5092477;28;20135;-65
2021/01/05 05:12:46;;;;;;;9.70;4.88;;;;;;;6.76;69.31;93228.94;5078067;28;20488;-65
2021/01/05 05:15:34;;;;;;;8.77;5.05;;;;;;;6.69;69.46;93221.41;5090064;28;20105;-66
2021/01/05 05:18:05;;;;;;;1.98;0.98;;;;;;;6.60;58.51;93231.19;5089640;28;20031;-64
2021/01/05 05:21:01;;;;;;;5.25;2.72;;;;;;;6.66;62.12;93245.09;5072313;28;20036;-65
2021/01/05 05:23:40;;;;;;;4.68;2.20;;;;;;;6.62;59.24;93240.38;5092356;28;20086;-65
2021/01/05 05:26:16;;;;;;;1.88;1.10;;;;;;;6.68;58.25;93250.88;5088050;28;20104;-65
2021/01/05 05:28:57;;;;;;;4.35;1.10;;;;;;;6.77;58.43;93252.44;5089541;28;20514;-64
2021/01/05 05:31:26;;;;;;;4.18;1.23;;;;;;;6.87;57.79;93250.66;5088261;28;20024;-64
2021/01/05 05:33:58;;;;;;;2.50;1.30;;;;;;;6.75;56.86;93259.16;5092049;28;21312;-64
2021/01/05 05:36:49;;;;;;;3.03;1.50;;;;;;;6.79;57.43;93260.88;5092278;28;20020;-64
2021/01/05 05:39:34;;;;;;;2.13;1.17;;;;;;;6.76;57.75;93255.44;5092269;28;20466;-65
2021/01/05 05:42:08;;;;;;;1.98;1.17;;;;;;;6.74;58.02;93268.19;5080632;28;20190;-65
2021/01/05 05:44:52;;;;;;;1.95;1.38;;;;;;;6.66;59.16;93272.34;5091717;28;20024;-65
2021/01/05 05:47:34;;;;;;;2.22;1.25;;;;;;;6.60;57.34;93284.91;5090612;28;20078;-64
2021/01/05 05:49:59;;;;;;;;;;;;;;;6.50;57.08;93285.16;5092105;28;20095;-65
2021/01/05 05:52:51;;;;;;;4.43;1.58;;;;;;;6.48;57.24;93284.69;5082962;28;20016;-65
2021/01/05 05:55:25;;;;;;;3.03;1.48;;;;;;;6.48;57.58;93292.63;5089022;28;20028;-65
2021/01/05 05:57:57;;;;;;;2.45;1.30;;;;;;;6.36;57.80;93279.91;5080793;28;20081;-65
2021/01/05 06:00:32;;;;;;;2.70;1.70;;;;;;;6.40;56.75;93285.41;5083094;28;20028;-65
2021/01/05 06:03:00;;;;;;;3.03;1.52;;;;;;;6.44;57.91;93307.53;5091534;28;21854;-65
2021/01/05 06:05:36;;;;;;;2.80;1.30;;;;;;;6.36;57.59;93305.63;5089206;28;20028;-75
2021/01/05 06:08:04;;;;;;;2.75;1.67;;;;;;;6.41;58.34;93318.72;5082839;28;20468;-75
2021/01/05 06:10:29;;;;;;;2.65;1.42;;;;;;;6.38;57.68;93324.63;5103984;28;20016;-75
2021/01/05 06:12:55;;;;;;;2.75;1.75;;;;;;;6.31;57.22;93317.09;5077204;28;20028;-76
2021/01/05 06:15:21;;;;;;;3.50;1.75;;;;;;;6.21;57.96;93318.09;5076547;28;20067;-76
2021/01/05 06:17:47;;;;;;;2.50;1.27;;;;;;;6.20;58.25;93315.75;5074863;28;20066;-75
2021/01/05 06:20:13;;;;;;;2.60;1.63;;;;;;;6.16;58.09;93328.00;5078679;28;20456;-74
2021/01/05 06:22:39;;;;;;;3.20;1.60;;;;;;;6.17;58.02;93314.50;5080040;28;20098;-74
2021/01/05 06:25:06;;;;;;;2.63;1.60;;;;;;;6.17;56.97;93324.31;5072021;28;20442;-74
2021/01/05 06:27:32;;;;;;;4.03;1.88;;;;;;;6.22;58.14;93332.13;5076886;28;20024;-74
2021/01/05 06:29:57;;;;;;;3.92;1.80;;;;;;;6.26;57.81;93322.50;5084487;28;20419;-75
2021/01/05 06:32:23;;;;;;;4.47;1.50;;;;;;;6.19;56.62;93328.22;5081580;28;20459;-75
2021/01/05 06:34:48;;;;;;;3.10;1.88;;;;;;;6.13;56.94;93326.75;5083698;28;20559;-75
2021/01/05 06:37:15;;;;;;;2.88;1.45;;;;;;;6.19;57.01;93328.22;5084112;28;20085;-76
2021/01/05 06:39:40;;;;;;;3.15;1.80;;;;;;;6.26;57.63;93333.09;5075674;28;20020;-76
2021/01/05 06:42:06;;;;;;;3.05;1.88;;;;;;;6.24;56.83;93332.59;5081573;28;20035;-78
2021/01/05 06:44:31;;;;;;;3.03;1.65;;;;;;;6.19;56.75;93336.16;5084104;28;20479;-78
2021/01/05 06:46:57;;;;;;;2.58;1.80;;;;;;;6.19;57.14;93349.38;5078104;28;20027;-77
2021/01/05 06:49:26;;;;;;;4.28;1.92;;;;;;;6.19;56.84;93354.66;5073925;28;20012;-78
2021/01/05 06:51:53;;;;;;;2.53;1.40;;;;;;;6.21;57.52;93363.09;5073908;28;20472;-77
2021/01/05 06:54:19;;;;;;;2.08;1.52;;;;;;;6.16;57.30;93357.13;5086096;28;20039;-75
2021/01/05 06:56:55;;;;;;;3.08;1.75;;;;;;;6.14;56.99;93365.34;5074487;28;20028;-75
2021/01/05 06:59:21;;;;;;;2.70;1.55;;;;;;;6.19;55.74;93361.84;5080973;28;20029;-76
2021/01/05 07:01:52;;;;;;;4.20;2.25;;;;;;;6.27;55.47;93358.47;5075521;28;20024;-75
2021/01/05 07:04:18;;;;;;;4.18;1.83;;;;;;;6.30;56.34;93351.81;5078054;28;20028;-76
2021/01/05 07:06:43;;;;;;;2.65;1.77;;;;;;;6.34;56.24;93356.19;5076055;28;20020;-76
2021/01/05 07:09:09;;;;;;;2.75;1.77;;;;;;;6.29;55.70;93334.34;5079521;28;20027;-75
2021/01/05 07:11:35;;;;;;;4.03;2.10;;;;;;;6.40;54.83;93370.09;5077838;28;20024;-75
2021/01/05 07:14:00;;;;;;;2.88;1.65;;;;;;;6.42;53.77;93352.06;5078450;28;20502;-74
2021/01/05 07:16:26;;;;;;;4.47;1.80;;;;;;;6.43;53.66;93369.50;5089565;28;20036;-74
2021/01/05 07:18:51;;;;;;;3.10;1.63;;;;;;;6.47;52.13;93359.09;5070125;28;20030;-74
2021/01/05 07:21:16;;;;;;;2.95;1.83;;;;;;;6.46;52.41;93382.16;5084959;28;20031;-73
2021/01/05 07:23:42;;;;;;;3.05;1.77;;;;;;;6.53;52.17;93382.50;5075007;28;20016;-74
2021/01/05 07:26:07;;;;;;;4.90;2.08;;;;;;;6.51;51.94;93371.44;5077247;28;20026;-74
2021/01/05 07:28:32;;;;;;;3.72;1.88;;;;;;;6.55;51.67;93380.34;5074765;28;20111;-74
2021/01/05 07:30:58;;;;;;;2.38;1.45;;;;;;;6.61;52.34;93371.25;5084652;28;20482;-74
2021/01/05 07:33:23;;;;;;;2.95;1.40;;;;;;;6.66;52.45;93394.16;5069594;28;20111;-73
2021/01/05 07:35:49;;;;;;;5.70;1.95;;;;;;;6.68;52.68;93381.41;5073417;28;20029;-75
2021/01/05 07:38:14;;;;;;;3.30;1.98;;;;;;;6.74;51.80;93371.47;5083247;28;20491;-75
2021/01/05 07:40:40;;;;;;;5.30;1.77;;;;;;;6.76;50.70;93378.03;5079437;28;20028;-73
2021/01/05 07:43:05;;;;;;;3.33;1.67;;;;;;;6.77;51.38;93378.81;5079018;28;20085;-73
2021/01/05 07:45:30;;;;;;;3.70;2.05;;;;;;;6.71;50.98;93377.38;5082560;28;20107;-73
2021/01/05 07:47:57;;;;;;;3.38;2.13;;;;;;;6.70;52.29;93383.75;5081343;28;20029;-73
2021/01/05 07:50:25;;;;;;;2.95;1.63;;;;;;;6.70;51.30;93383.75;5079139;28;20031;-74
2021/01/05 07:52:51;;;;;;;3.35;1.80;;;;;;;6.76;50.78;93377.25;5079179;28;20515;-74
2021/01/05 07:55:22;;;;;;;3.45;2.00;;;;;;;6.65;51.24;93386.50;5084852;28;20490;-73
2021/01/05 07:57:49;;;;;;;3.25;1.75;;;;;;;6.65;51.25;93394.47;5079689;28;20027;-74
2021/01/05 08:00:20;;;;;;;3.30;1.80;;;;;;;6.63;51.16;93397.41;5090114;28;20028;-75
2021/01/05 08:02:46;;;;;;;2.63;1.80;;;;;;;6.65;51.72;93391.81;5094775;28;20497;-76
2021/01/05 08:05:24;;;;;;;2.13;1.40;;;;;;;6.50;50.61;93372.53;5087599;28;20032;-77
2021/01/05 08:07:49;;;;;;;2.08;1.48;;;;;;;6.60;51.53;93385.53;5077246;28;20035;-77
2021/01/05 08:10:17;;;;;;;4.32;1.55;;;;;;;6.64;51.12;93398.97;5077298;28;20020;-76
2021/01/05 08:12:43;;;;;;;3.10;1.42;;;;;;;6.71;50.25;93406.50;5080770;28;20031;-76
2021/01/05 08:15:12;;;;;;;2.35;1.42;;;;;;;6.72;50.18;93389.53;5078744;28;20035;-77
2021/01/05 08:17:37;;;;;;;3.03;1.70;;;;;;;6.79;50.54;93409.22;5085942;28;20024;-76
2021/01/05 08:20:04;;;;;;;2.63;1.55;;;;;;;6.90;50.41;93406.31;5086162;28;20030;-76
2021/01/05 08:22:29;;;;;;;2.65;1.52;;;;;;;6.96;49.61;93416.53;5081869;28;20020;-76
2021/01/05 08:24:55;;;;;;;1.92;1.13;;;;;;;7.05;49.66;93405.22;5083875;28;20047;-76
2021/01/05 08:27:20;;;;;;;2.47;1.40;;;;;;;7.12;48.79;93408.19;5082827;28;20054;-76
2021/01/05 08:29:46;;;;;;;2.05;1.10;;;;;;;7.18;48.75;93425.53;5083763;28;20021;-76
2021/01/05 08:32:11;;;;;;;2.30;1.08;;;;;;;7.24;48.14;93419.03;5082418;28;20019;-75
2021/01/05 08:34:36;;;;;;;2.15;1.20;;;;;;;7.22;46.97;93413.25;5087090;28;20020;-73
2021/01/05 08:37:02;;;;;;;4.55;1.30;;;;;;;7.17;46.38;93410.75;5075893;28;20031;-73
2021/01/05 08:39:28;;;;;;;1.83;1.10;;;;;;;7.22;48.15;93421.22;5081510;28;20055;-73
2021/01/05 08:41:55;;;;;;;2.55;1.15;;;;;;;7.17;48.32;93424.00;5077338;28;20040;-73
2021/01/05 08:44:22;;;;;;;2.33;1.30;;;;;;;7.23;48.65;93433.38;5083141;28;20078;-73
2021/01/05 08:46:47;;;;;;;2.35;1.30;;;;;;;7.29;47.50;93424.22;5083288;28;20387;-74
2021/01/05 08:49:13;;;;;;;2.33;1.10;;;;;;;7.29;47.18;93431.41;5084372;28;20020;-75
2021/01/05 08:51:38;;;;;;;2.65;1.10;;;;;;;7.38;47.49;93429.56;5087259;28;20483;-75
2021/01/05 08:54:07;;;;;;;1.92;0.98;;;;;;;7.29;47.33;93424.22;5077275;28;20285;-69
2021/01/05 08:56:33;;;;;;;2.67;1.15;;;;;;;7.34;47.79;93424.09;5083834;28;20031;-73
2021/01/05 08:58:58;;;;;;;1.52;1.10;;;;;;;7.41;47.88;93426.34;5081917;28;20073;-73
2021/01/05 09:01:24;;;;;;;2.03;1.30;;;;;;;7.28;46.00;93420.00;5081109;28;20488;-73
2021/01/05 09:03:50;;;;;;;1.85;1.25;;;;;;;7.35;47.09;93438.94;5081421;28;20509;-73
2021/01/05 09:06:21;;;;;;;2.63;1.10;;;;;;;7.42;46.15;93444.56;5081428;28;20505;-72
2021/01/05 09:08:47;;;;;;;1.10;0.80;;;;;;;7.38;46.26;93437.53;5082400;28;20031;-73
2021/01/05 09:11:21;;;;;;;2.20;1.15;;;;;;;7.35;45.52;93435.50;5085901;28;20023;-73
2021/01/05 09:13:47;;;;;;;4.13;1.23;;;;;;;7.28;45.55;93451.03;5086968;28;20062;-73
2021/01/05 09:16:39;;;;;;;2.47;1.17;;;;;;;7.44;47.57;93437.09;5088390;28;20125;-73
2021/01/05 09:19:04;;;;;;;3.72;1.48;;;;;;;7.44;47.43;93444.28;5076581;28;20137;-73
2021/01/05 09:21:30;;;;;;;2.33;1.17;;;;;;;7.45;47.53;93427.28;5084096;28;20081;-73
2021/01/05 09:24:00;;;;;;;3.22;1.13;;;;;;;7.55;45.56;93431.53;5082209;28;20024;-73
2021/01/05 09:26:33;;;;;;;2.83;1.50;;;;;;;7.65;44.98;93425.97;5084171;28;20377;-73
2021/01/05 09:28:59;;;;;;;1.88;0.85;;;;;;;7.71;44.94;93426.63;5081815;28;20027;-72
2021/01/05 09:31:25;;;;;;;3.33;1.38;;;;;;;7.78;44.90;93437.59;5083755;28;20028;-74
2021/01/05 09:33:51;;;;;;;1.30;0.70;;;;;;;7.91;41.69;93436.72;5083470;28;20503;-73
2021/01/05 09:36:18;;;;;;;2.90;0.90;;;;;;;8.04;42.13;93437.72;5086733;28;20115;-74
2021/01/05 09:38:44;;;;;;;1.55;0.95;;;;;;;8.22;43.13;93434.03;5081135;28;20032;-74
2021/01/05 09:41:29;;;;;;;6.50;1.10;;;;;;;8.24;43.47;93437.16;5078173;28;20043;-74
2021/01/05 09:43:55;;;;;;;4.55;1.10;;;;;;;8.27;43.92;93435.75;5105816;28;20460;-73
2021/01/05 09:46:22;;;;;;;3.53;1.13;;;;;;;8.41;44.26;93433.78;5081008;28;20028;-74
2021/01/05 09:48:48;;;;;;;2.38;1.15;;;;;;;8.54;43.96;93431.31;5084425;28;20021;-73
2021/01/05 09:51:25;;;;;;;3.03;1.10;;;;;;;8.68;44.10;93401.94;5081138;28;20112;-75
2021/01/05 09:53:51;;;;;;;3.45;1.30;;;;;;;8.82;41.87;93413.22;5086218;28;20413;-74
2021/01/05 09:56:17;;;;;;;3.22;1.20;;;;;;;8.88;41.87;93405.88;5084830;28;20188;-73
2021/01/05 09:58:43;;;;;;;7.65;3.97;;;;;;;8.99;42.85;93415.84;5085024;28;20385;-74
2021/01/05 10:01:08;;;;;;;5.35;1.10;;;;;;;9.11;40.99;93409.13;5085507;28;20032;-74
2021/01/05 10:03:34;;;;;;;3.58;1.23;;;;;;;9.19;39.97;93408.34;5077926;28;20024;-74
2021/01/05 10:05:59;;;;;;;1.38;0.73;;;;;;;9.28;38.61;93406.47;5081020;28;20508;-74
2021/01/05 10:08:25;;;;;;;1.83;0.90;;;;;;;9.26;38.67;93413.97;5083220;28;20479;-74
2021/01/05 10:10:50;;;;;;;1.80;0.80;;;;;;;9.22;36.65;93418.38;5080836;28;20483;-73
2021/01/05 10:13:16;;;;;;;1.75;1.00;;;;;;;9.07;37.29;93406.31;5070320;28;20512;-67
2021/01/05 10:15:41;;;;;;;1.17;0.60;;;;;;;8.92;39.22;93420.09;5069660;28;20545;-67
2021/01/05 10:18:06;;;;;;;1.33;0.68;;;;;;;8.88;40.47;93433.22;5071083;28;20399;-67
2021/01/05 10:20:32;;;;;;;0.82;0.57;;;;;;;8.69;41.33;93419.44;5071162;28;20076;-67
2021/01/05 10:22:57;;;;;;;1.00;0.60;;;;;;;8.60;40.44;93414.91;5069583;28;20412;-67
2021/01/05 10:25:23;;;;;;;2.40;0.70;;;;;;;8.53;39.99;93417.25;5078006;28;20024;-66
2021/01/05 10:27:49;;;;;;;1.05;0.55;;;;;;;8.57;40.49;93423.50;5070864;28;20028;-67
2021/01/05 10:30:16;;;;;;;1.55;0.60;;;;;;;8.52;41.40;93428.19;5079530;28;20019;-66
2021/01/05 10:32:43;;;;;;;2.00;0.98;;;;;;;8.63;42.67;93430.22;5076322;28;20344;-66
2021/01/05 10:35:09;;;;;;;1.13;0.70;;;;;;;8.59;43.60;93428.50;5070731;28;20031;-66
2021/01/05 10:37:34;;;;;;;1.90;0.70;;;;;;;8.63;43.17;93443.50;5084130;28;20395;-66
2021/01/05 10:39:59;;;;;;;1.48;0.65;;;;;;;8.58;42.71;93411.78;5078439;28;20020;-66
2021/01/05 10:42:25;;;;;;;2.00;0.75;;;;;;;8.62;42.86;93417.25;5081696;28;20024;-66
2021/01/05 10:44:50;;;;;;;0.93;0.55;;;;;;;8.71;42.45;93425.22;5089659;28;20527;-66
2021/01/05 10:47:16;;;;;;;1.77;0.85;;;;;;;8.78;44.11;93436.19;5071357;28;20035;-67
2021/01/05 10:49:41;;;;;;;1.00;0.60;;;;;;;8.86;42.56;93438.06;5073535;28;20026;-67
2021/01/05 10:52:14;;;;;;;1.83;0.60;;;;;;;8.79;42.01;93443.03;5090300;28;20028;-67
2021/01/05 10:54:39;;;;;;;1.30;0.70;;;;;;;8.86;42.21;93453.22;5077310;28;20024;-66
2021/01/05 10:57:06;;;;;;;1.23;0.47;;;;;;;8.64;40.26;93442.41;5070223;28;20556;-66
2021/01/05 10:59:32;;;;;;;1.02;0.52;;;;;;;8.64;41.25;93450.38;5081585;28;20032;-66
2021/01/05 11:01:59;;;;;;;6.00;0.80;;;;;;;8.75;41.41;93453.53;5075203;28;20459;-66
2021/01/05 11:04:26;;;;;;;1.05;0.52;;;;;;;8.79;42.02;93448.34;5082752;28;20115;-66
2021/01/05 11:06:56;;;;;;;0.60;0.40;;;;;;;8.66;39.98;93441.31;5075071;28;20087;-66
2021/01/05 11:09:23;;;;;;;1.08;0.40;;;;;;;8.58;40.37;93435.69;5079874;28;20018;-67
2021/01/05 11:12:02;;;;;;;1.90;0.40;;;;;;;8.68;41.10;93436.47;5088072;28;20150;-67
2021/01/05 11:14:27;;;;;;;1.05;0.47;;;;;;;8.73;41.36;93438.97;5102066;28;20032;-67
2021/01/05 11:16:53;;;;;;;0.60;0.45;;;;;;;8.53;42.49;93445.66;5068027;28;20024;-66
2021/01/05 11:19:19;;;;;;;0.77;0.40;;;;;;;8.60;42.16;93446.00;5089472;28;20035;-67
2021/01/05 11:22:06;;;;;;;1.13;0.40;;;;;;;8.51;42.82;93464.59;5089856;28;20460;-67
2021/01/05 11:24:35;;;;;;;2.17;1.50;;;;;;;8.54;42.30;93463.19;5088119;28;20104;-67
2021/01/05 11:27:00;;;;;;;0.98;0.60;;;;;;;8.51;42.05;93469.91;5077451;28;20436;-67
2021/01/05 11:29:27;;;;;;;0.32;0.30;;;;;;;8.63;42.39;93451.47;5069942;28;20108;-67
2021/01/05 11:32:01;;;;;;;2.95;1.50;;;;;;;8.85;42.37;93441.78;5076467;28;20028;-67
2021/01/05 11:34:27;;;;;;;4.32;0.60;;;;;;;9.10;41.55;93442.13;5088161;28;20023;-67
2021/01/05 11:36:53;;;;;;;2.22;0.40;;;;;;;9.21;41.57;93440.72;5070231;28;20028;-67
2021/01/05 11:39:19;;;;;;;1.38;0.60;;;;;;;9.27;42.41;93442.13;5076333;28;20124;-68
2021/01/05 11:41:45;;;;;;;2.17;0.80;;;;;;;9.49;42.62;93448.38;5089469;28;20122;-65
2021/01/05 11:44:13;;;;;;;4.63;1.08;;;;;;;9.59;41.30;93458.66;5081482;28;20400;-66
2021/01/05 11:46:38;;;;;;;4.03;0.52;;;;;;;9.45;40.38;93437.56;5071941;28;20020;-66
2021/01/05 11:49:04;;;;;;;2.60;1.00;;;;;;;9.46;41.01;93441.78;5068989;28;20449;-66
2021/01/05 11:51:35;;;;;;;1.70;0.77;;;;;;;9.55;39.65;93447.09;5081871;28;20430;-66
2021/01/05 11:54:00;;;;;;;3.03;1.00;;;;;;;9.67;40.05;93441.09;5083497;28;20048;-66